Time;durP1;ratioP1;P1;durP2;ratioP2;P2;SDS_P1;SDS_P2;PMS_P1;PMS_P2;Temp;Humidity;BMP_temperature;BMP_pressure;BME280_temperature;BME280_humidity;BME280_pressure;Samples;Min_cycle;Max_cycle;Signal;HPM_P1;HPM_P2
2023/05/31 00:01:33;;;;;;;12.63;6.65;;;;;;;12.79;50.29;99094.59;5054501;28;20029;-69
2023/05/31 00:03:58;;;;;;;16.60;8.10;;;;;;;12.78;50.42;99098.47;5052058;28;20158;-69
2023/05/31 00:06:24;;;;;;;18.02;8.43;;;;;;;12.75;50.34;99096.31;5051822;28;20364;-69
2023/05/31 00:08:49;;;;;;;14.60;7.68;;;;;;;12.74;50.63;99097.41;5051535;28;20484;-69
2023/05/31 00:11:15;;;;;;;12.32;5.88;;;;;;;12.72;50.91;99093.31;5049908;28;20035;-69
2023/05/31 00:13:40;;;;;;;11.82;5.57;;;;;;;12.68;50.27;99084.00;5072535;28;20036;-69
2023/05/31 00:16:07;;;;;;;10.70;5.63;;;;;;;12.64;50.94;99087.34;5072556;28;20033;-69
2023/05/31 00:18:32;;;;;;;11.85;4.63;;;;;;;12.59;50.69;99090.19;5042902;28;20029;-69
2023/05/31 00:20:57;;;;;;;7.32;4.10;;;;;;;12.56;50.64;99096.25;5072438;28;20032;-70
2023/05/31 00:23:23;;;;;;;10.18;4.40;;;;;;;12.50;51.10;99090.00;5058998;28;20024;-69
2023/05/31 00:25:48;;;;;;;11.80;4.50;;;;;;;12.44;51.39;99099.41;5043936;28;20355;-69
2023/05/31 00:28:14;;;;;;;11.73;4.53;;;;;;;12.40;51.15;99092.03;5044767;28;20029;-69
2023/05/31 00:30:39;;;;;;;8.38;4.30;;;;;;;12.34;50.98;99091.28;5042620;28;20116;-69
2023/05/31 00:33:05;;;;;;;10.95;4.28;;;;;;;12.31;51.16;99094.63;5030931;28;20428;-69
2023/05/31 00:35:30;;;;;;;8.73;4.50;;;;;;;12.27;51.44;99088.88;5033193;28;20044;-68
2023/05/31 00:37:56;;;;;;;7.78;4.60;;;;;;;12.21;51.62;99092.81;5042707;28;20484;-69
2023/05/31 00:40:21;;;;;;;10.23;4.30;;;;;;;12.14;51.51;99087.66;5051309;28;20131;-70
2023/05/31 00:42:47;;;;;;;9.60;4.55;;;;;;;12.11;50.99;99088.22;5050508;28;20033;-69
2023/05/31 00:45:12;;;;;;;11.40;4.50;;;;;;;12.06;51.95;99097.34;5043288;28;20409;-69
2023/05/31 00:47:38;;;;;;;8.10;4.60;;;;;;;12.02;51.22;99090.00;5044142;28;20043;-69
2023/05/31 00:50:04;;;;;;;8.80;4.82;;;;;;;11.99;52.05;99093.28;5043134;28;20029;-69
2023/05/31 00:52:31;;;;;;;9.38;4.93;;;;;;;11.96;51.73;99091.91;5040444;28;20436;-69
2023/05/31 00:54:57;;;;;;;8.68;4.70;;;;;;;11.92;52.14;99099.09;5041995;28;20113;-69
2023/05/31 00:57:23;;;;;;;10.98;4.47;;;;;;;11.89;51.87;99094.19;5046350;28;20087;-69
2023/05/31 00:59:49;;;;;;;8.90;4.50;;;;;;;11.83;51.65;99087.94;5033069;28;20417;-69
2023/05/31 01:02:17;;;;;;;9.30;4.95;;;;;;;11.80;52.51;99088.50;5049227;28;20040;-69
2023/05/31 01:04:43;;;;;;;10.70;4.95;;;;;;;11.77;52.44;99092.66;5039121;28;20033;-69
2023/05/31 01:07:09;;;;;;;9.48;4.53;;;;;;;11.73;51.99;99097.09;5034255;28;20436;-69
2023/05/31 01:09:36;;;;;;;9.20;4.57;;;;;;;11.67;51.89;99100.97;5038260;28;20021;-69
2023/05/31 01:12:14;;;;;;;6.65;4.32;;;;;;;11.60;52.50;99103.25;5052021;28;20116;-69
2023/05/31 01:14:58;;;;;;;12.07;4.88;;;;;;;11.57;52.60;99104.66;5049808;28;20167;-69
2023/05/31 01:17:38;;;;;;;8.48;4.50;;;;;;;11.52;52.72;99109.34;5046396;28;20478;-69
2023/05/31 01:20:09;;;;;;;11.45;6.65;;;;;;;11.50;52.55;99106.91;5031845;28;20458;-69
2023/05/31 01:23:12;;;;;;;10.73;5.95;;;;;;;11.46;52.55;99108.56;5031886;28;20559;-69
2023/05/31 01:25:59;;;;;;;10.95;5.68;;;;;;;11.44;52.26;99108.84;5032003;28;20052;-68
2023/05/31 01:28:26;;;;;;;10.82;4.93;;;;;;;11.44;53.04;99111.59;5041090;28;20060;-69
2023/05/31 01:30:55;;;;;;;9.95;4.53;;;;;;;11.44;53.35;99100.59;5051451;28;20021;-69
2023/05/31 01:33:21;;;;;;;7.45;4.50;;;;;;;11.42;53.03;99100.06;5050319;28;20056;-68
2023/05/31 01:35:46;;;;;;;13.05;4.72;;;;;;;11.43;52.84;99098.97;5039291;28;20554;-69
2023/05/31 01:38:11;;;;;;;7.82;4.10;;;;;;;11.43;53.39;99092.66;5051919;28;20036;-69
2023/05/31 01:40:38;;;;;;;8.43;4.40;;;;;;;11.42;53.08;99097.31;5038991;28;20541;-69
2023/05/31 01:43:04;;;;;;;9.85;4.93;;;;;;;11.42;52.80;99096.50;5036490;28;20034;-69
2023/05/31 01:45:31;;;;;;;9.25;4.30;;;;;;;11.38;52.85;99099.03;5039065;28;20471;-69
2023/05/31 01:48:02;;;;;;;9.00;4.65;;;;;;;11.36;52.61;99092.16;5044518;28;20033;-69
2023/05/31 01:50:28;;;;;;;8.32;4.72;;;;;;;11.36;53.26;99098.47;5035170;28;20116;-69
2023/05/31 01:52:54;;;;;;;10.68;5.07;;;;;;;11.32;53.11;99106.47;5035051;28;20069;-69
2023/05/31 01:55:19;;;;;;;9.27;4.63;;;;;;;11.29;54.05;99101.53;5037252;28;20061;-69
2023/05/31 01:57:46;;;;;;;8.80;4.60;;;;;;;11.25;53.83;99100.47;5053266;28;20035;-70
2023/05/31 02:00:14;;;;;;;8.95;4.55;;;;;;;11.24;53.44;99101.56;5043726;28;20482;-69
2023/05/31 02:02:43;;;;;;;10.55;5.10;;;;;;;11.23;53.86;99105.41;5049044;28;20040;-69
2023/05/31 02:05:12;;;;;;;14.27;5.57;;;;;;;11.20;53.34;99100.53;5053864;28;20108;-69
2023/05/31 02:07:42;;;;;;;12.73;6.35;;;;;;;11.16;53.45;99099.44;5048346;28;20031;-69
2023/05/31 02:10:08;;;;;;;9.32;4.85;;;;;;;11.12;53.35;99099.19;5048186;28;20020;-69
2023/05/31 02:12:34;;;;;;;9.30;5.25;;;;;;;11.09;53.20;99107.16;5054199;28;20111;-69
2023/05/31 02:15:00;;;;;;;11.30;5.00;;;;;;;11.06;53.87;99105.00;5054246;28;20500;-69
2023/05/31 02:17:25;;;;;;;8.93;4.88;;;;;;;11.01;53.79;99114.91;5050703;28;20036;-69
2023/05/31 02:19:52;;;;;;;9.95;5.07;;;;;;;10.97;54.14;99105.59;5037360;28;20533;-68
2023/05/31 02:22:18;;;;;;;11.85;5.53;;;;;;;10.94;54.27;99103.41;5035877;28;20044;-69
2023/05/31 02:24:44;;;;;;;15.68;5.93;;;;;;;10.93;54.09;99104.50;5050615;28;20130;-69
2023/05/31 02:27:10;;;;;;;17.95;6.43;;;;;;;10.90;53.89;99102.31;5036534;28;20045;-69
2023/05/31 02:29:35;;;;;;;13.35;5.97;;;;;;;10.89;54.09;99103.41;5062020;28;20440;-69
2023/05/31 02:32:01;;;;;;;12.52;6.28;;;;;;;10.88;54.48;99107.28;5054537;28;20122;-69
2023/05/31 02:34:26;;;;;;;14.75;8.18;;;;;;;10.87;54.40;99103.72;5053946;28;20067;-68
2023/05/31 02:36:52;;;;;;;14.68;6.88;;;;;;;10.86;54.17;99106.72;5052660;28;20040;-69
2023/05/31 02:39:18;;;;;;;13.20;6.97;;;;;;;10.85;54.13;99105.91;5035284;28;20029;-69
2023/05/31 02:41:43;;;;;;;12.88;6.47;;;;;;;10.85;54.47;99096.84;5035286;28;20037;-69
2023/05/31 02:44:09;;;;;;;14.05;6.40;;;;;;;10.83;54.97;99097.16;5034174;28;20101;-69
2023/05/31 02:46:34;;;;;;;13.82;6.82;;;;;;;10.81;54.29;99099.34;5034066;28;20025;-70
2023/05/31 02:49:00;;;;;;;12.68;5.80;;;;;;;10.80;54.57;99100.47;5049872;28;20029;-69
2023/05/31 02:51:25;;;;;;;13.02;6.03;;;;;;;10.80;54.83;99111.44;5050381;28;20119;-69
2023/05/31 02:53:51;;;;;;;11.98;5.72;;;;;;;10.79;54.91;99112.53;5053570;28;20107;-69
2023/05/31 02:56:16;;;;;;;10.75;5.88;;;;;;;10.79;55.59;99114.47;5054044;28;20029;-70
2023/05/31 02:58:42;;;;;;;14.13;6.80;;;;;;;10.78;54.47;99113.63;5047368;28;20107;-69
2023/05/31 03:01:08;;;;;;;12.10;5.78;;;;;;;10.77;54.68;99112.00;5053546;28;20039;-69
2023/05/31 03:03:33;;;;;;;12.95;6.03;;;;;;;10.76;54.96;99112.28;5053613;28;20127;-69
2023/05/31 03:05:59;;;;;;;12.90;5.60;;;;;;;10.77;55.16;99111.19;5046077;28;20369;-69
2023/05/31 03:08:24;;;;;;;12.07;5.95;;;;;;;10.77;54.80;99117.47;5035957;28;20030;-69
2023/05/31 03:10:50;;;;;;;13.93;5.72;;;;;;;10.80;55.20;99119.66;5033679;28;20116;-69
2023/05/31 03:13:15;;;;;;;13.07;6.72;;;;;;;10.81;55.46;99115.81;5034910;28;20064;-70
2023/05/31 03:15:41;;;;;;;15.10;8.15;;;;;;;10.82;55.64;99120.19;5033576;28;20036;-69
2023/05/31 03:18:07;;;;;;;13.10;7.25;;;;;;;10.84;55.17;99126.22;5041043;28;20029;-69
2023/05/31 03:20:33;;;;;;;15.05;7.97;;;;;;;10.85;55.47;99124.28;5042049;28;20037;-69
2023/05/31 03:22:58;;;;;;;14.55;7.82;;;;;;;10.86;55.57;99125.94;5044303;28;20029;-69
2023/05/31 03:25:25;;;;;;;15.63;7.68;;;;;;;10.87;55.29;99128.41;5071782;28;20337;-68
2023/05/31 03:27:50;;;;;;;20.23;10.90;;;;;;;10.91;55.65;99127.84;5065186;28;20099;-69
2023/05/31 03:30:16;;;;;;;19.48;11.68;;;;;;;10.94;54.93;99135.53;5060833;28;20465;-69
2023/05/31 03:32:41;;;;;;;14.13;7.57;;;;;;;10.96;55.58;99134.13;5060997;28;20033;-69
2023/05/31 03:35:07;;;;;;;13.05;7.03;;;;;;;10.97;55.78;99130.28;5036741;28;20029;-69
2023/05/31 03:37:33;;;;;;;14.55;7.72;;;;;;;11.00;55.76;99129.72;5034778;28;20029;-69
2023/05/31 03:39:58;;;;;;;15.43;7.07;;;;;;;11.04;55.76;99121.72;5052599;28;20044;-69
2023/05/31 03:42:24;;;;;;;12.18;6.32;;;;;;;11.07;55.90;99131.34;5058425;28;20461;-69
2023/05/31 03:44:49;;;;;;;16.45;7.18;;;;;;;11.11;55.64;99133.22;5040448;28;20032;-69
2023/05/31 03:47:15;;;;;;;12.77;5.55;;;;;;;11.17;56.08;99134.03;5039390;28;20043;-69
2023/05/31 03:49:41;;;;;;;12.93;6.22;;;;;;;11.21;55.57;99135.06;5034141;28;20029;-69
2023/05/31 03:52:08;;;;;;;14.65;7.32;;;;;;;11.24;56.12;99137.25;5037453;28;20124;-69
2023/05/31 03:54:34;;;;;;;26.58;19.80;;;;;;;11.30;55.90;99143.56;5040964;28;20026;-69
2023/05/31 03:57:00;;;;;;;24.48;21.10;;;;;;;11.35;55.84;99135.28;5032742;28;20040;-69
2023/05/31 03:59:25;;;;;;;19.88;16.48;;;;;;;11.40;55.80;99145.41;5047451;28;20107;-69
2023/05/31 04:01:51;;;;;;;19.38;14.88;;;;;;;11.46;55.55;99141.53;5051031;28;20021;-69
2023/05/31 04:04:17;;;;;;;17.50;12.48;;;;;;;11.52;56.29;99136.81;5052352;28;20359;-69
2023/05/31 04:06:42;;;;;;;14.60;9.70;;;;;;;11.57;55.78;99134.03;5051047;28;20083;-68
2023/05/31 04:09:07;;;;;;;18.58;11.75;;;;;;;11.61;55.98;99133.16;5052553;28;20445;-69
2023/05/31 04:11:33;;;;;;;19.25;13.65;;;;;;;11.66;55.42;99126.81;5049152;28;20033;-69
2023/05/31 04:13:58;;;;;;;13.63;9.23;;;;;;;11.70;55.43;99119.66;5045744;28;20075;-69
2023/05/31 04:16:24;;;;;;;12.95;6.10;;;;;;;11.75;55.97;99122.34;5033557;28;20041;-69
2023/05/31 04:18:49;;;;;;;10.68;6.28;;;;;;;11.82;55.61;99118.47;5038262;28;20485;-69
2023/05/31 04:21:15;;;;;;;14.15;7.13;;;;;;;11.85;55.25;99115.09;5050219;28;20040;-69
2023/05/31 04:23:40;;;;;;;11.30;6.18;;;;;;;11.91;55.98;99119.44;5048053;28;20369;-69
2023/05/31 04:26:06;;;;;;;16.20;7.47;;;;;;;11.98;55.55;99119.13;5067259;28;20361;-69
2023/05/31 04:28:32;;;;;;;12.65;6.53;;;;;;;12.03;55.28;99119.09;5071182;28;20544;-68
2023/05/31 04:30:58;;;;;;;16.30;6.75;;;;;;;12.08;55.92;99119.03;5070587;28;20112;-69
2023/05/31 04:33:24;;;;;;;11.30;6.10;;;;;;;12.14;55.07;99122.59;5063852;28;20052;-69
2023/05/31 04:35:50;;;;;;;13.25;6.10;;;;;;;12.20;55.63;99116.72;5033455;28;20073;-69
2023/05/31 04:38:16;;;;;;;18.90;6.78;;;;;;;12.25;55.80;99115.84;5032417;28;20036;-69
2023/05/31 04:40:42;;;;;;;12.18;6.38;;;;;;;12.31;55.60;99119.38;5041214;28;20051;-68
2023/05/31 04:43:08;;;;;;;11.93;5.88;;;;;;;12.35;55.68;99113.00;5046896;28;20112;-70
2023/05/31 04:45:33;;;;;;;12.38;5.82;;;;;;;12.39;55.81;99116.00;5044422;28;20025;-67
2023/05/31 04:47:59;;;;;;;10.65;5.85;;;;;;;12.42;55.34;99123.66;5051299;28;20032;-68
2023/05/31 04:50:25;;;;;;;14.20;5.90;;;;;;;12.46;55.62;99126.66;5050027;28;20029;-68
2023/05/31 04:52:51;;;;;;;13.82;5.95;;;;;;;12.51;55.65;99124.66;5042727;28;20079;-68
2023/05/31 04:55:17;;;;;;;12.32;5.95;;;;;;;12.54;55.48;99123.25;5041215;28;20110;-68
2023/05/31 04:57:43;;;;;;;10.65;5.60;;;;;;;12.59;55.28;99131.44;5051706;28;20035;-68
2023/05/31 05:00:10;;;;;;;10.68;5.07;;;;;;;12.64;55.22;99134.13;5052585;28;20029;-68
2023/05/31 05:02:35;;;;;;;13.70;5.85;;;;;;;12.70;55.21;99136.81;5064254;28;20119;-68
2023/05/31 05:05:01;;;;;;;10.50;5.22;;;;;;;12.75;55.45;99131.25;5061871;28;20100;-68
2023/05/31 05:07:26;;;;;;;12.38;4.88;;;;;;;12.79;55.16;99132.31;5059675;28;20500;-68
2023/05/31 05:09:52;;;;;;;8.45;4.70;;;;;;;12.83;55.42;99130.59;5056261;28;20033;-68
2023/05/31 05:12:17;;;;;;;9.50;4.57;;;;;;;12.89;55.08;99134.09;5042864;28;20544;-67
2023/05/31 05:14:43;;;;;;;8.52;4.68;;;;;;;12.96;55.65;99140.06;5068845;28;20034;-69
2023/05/31 05:17:08;;;;;;;8.85;4.82;;;;;;;13.01;55.19;99142.75;5041143;28;20037;-68
2023/05/31 05:19:35;;;;;;;10.50;4.47;;;;;;;13.06;55.53;99137.19;5051231;28;20035;-68
2023/05/31 05:22:01;;;;;;;29.88;5.55;;;;;;;13.14;55.33;99138.44;5051946;28;20033;-68
2023/05/31 05:24:26;;;;;;;9.38;5.25;;;;;;;13.19;55.05;99134.81;5047593;28;20028;-68
2023/05/31 05:26:52;;;;;;;12.15;5.20;;;;;;;13.24;55.14;99143.81;5054366;28;20032;-68
2023/05/31 05:29:17;;;;;;;9.90;4.78;;;;;;;13.30;55.12;99147.31;5057771;28;20112;-68
2023/05/31 05:31:43;;;;;;;10.55;4.50;;;;;;;13.36;55.14;99151.63;5054056;28;20444;-68
2023/05/31 05:34:09;;;;;;;10.52;4.32;;;;;;;13.42;55.10;99149.69;5050859;28;20033;-68
2023/05/31 05:36:36;;;;;;;9.63;4.88;;;;;;;13.49;55.08;99155.59;5046084;28;20033;-68
2023/05/31 05:39:05;;;;;;;10.02;4.88;;;;;;;13.56;55.06;99144.22;5054464;28;20114;-68
2023/05/31 05:41:31;;;;;;;9.63;4.88;;;;;;;13.63;54.95;99154.88;5055206;28;20037;-69
2023/05/31 05:43:57;;;;;;;9.30;4.88;;;;;;;13.68;54.85;99150.09;5054699;28;20037;-68
2023/05/31 05:46:22;;;;;;;13.68;4.90;;;;;;;13.75;55.06;99148.88;5052974;28;20082;-68
2023/05/31 05:48:48;;;;;;;8.65;4.25;;;;;;;13.81;54.61;99154.03;5045715;28;20029;-67
2023/05/31 05:51:13;;;;;;;13.98;5.50;;;;;;;13.86;54.75;99150.38;5052679;28;20051;-68
2023/05/31 05:53:40;;;;;;;8.02;4.78;;;;;;;13.93;54.75;99163.75;5052567;28;20056;-68
2023/05/31 05:56:06;;;;;;;10.50;4.60;;;;;;;14.00;54.87;99158.69;5050409;28;20034;-67
2023/05/31 05:58:31;;;;;;;11.93;4.93;;;;;;;14.09;54.80;99156.03;5050663;28;20433;-67
2023/05/31 06:00:57;;;;;;;10.57;4.40;;;;;;;14.17;55.12;99160.06;5047229;28;20028;-67
2023/05/31 06:03:23;;;;;;;10.75;4.78;;;;;;;14.23;54.90;99162.41;5053771;28;20033;-67
2023/05/31 06:05:49;;;;;;;9.48;4.63;;;;;;;14.31;54.75;99147.09;5052852;28;20057;-67
2023/05/31 06:08:15;;;;;;;11.95;4.82;;;;;;;14.39;54.73;99154.66;5054466;28;20060;-68
2023/05/31 06:10:40;;;;;;;9.27;4.13;;;;;;;14.46;54.49;99156.22;5049701;28;20044;-69
2023/05/31 06:13:06;;;;;;;8.23;3.97;;;;;;;14.52;54.70;99155.81;5053020;28;20512;-69
2023/05/31 06:15:32;;;;;;;6.72;4.03;;;;;;;14.57;54.43;99158.47;5049502;28;20033;-68
2023/05/31 06:17:58;;;;;;;7.55;4.15;;;;;;;14.64;54.43;99154.50;5050306;28;20052;-69
2023/05/31 06:20:23;;;;;;;9.77;4.15;;;;;;;14.73;54.25;99153.50;5053033;28;20104;-68
2023/05/31 06:22:53;;;;;;;7.68;4.00;;;;;;;14.81;54.41;99153.91;5053127;28;20556;-70
2023/05/31 06:25:20;;;;;;;12.55;3.65;;;;;;;14.87;54.32;99159.03;5052162;28;20041;-68
2023/05/31 06:27:46;;;;;;;7.45;3.95;;;;;;;14.95;54.35;99157.47;5050610;28;20017;-69
2023/05/31 06:30:13;;;;;;;8.82;3.80;;;;;;;15.03;54.43;99147.66;5048708;28;20473;-69
2023/05/31 06:32:39;;;;;;;5.93;3.53;;;;;;;15.12;54.32;99153.25;5056099;28;20029;-69
2023/05/31 06:35:06;;;;;;;9.35;3.28;;;;;;;15.21;54.02;99142.31;5059931;28;20090;-69
2023/05/31 06:37:31;;;;;;;11.23;3.72;;;;;;;15.29;53.79;99150.66;5052157;28;20099;-69
2023/05/31 06:39:57;;;;;;;9.52;3.70;;;;;;;15.37;53.62;99148.31;5049152;28;20117;-67
2023/05/31 06:42:22;;;;;;;9.20;3.97;;;;;;;15.43;53.63;99147.88;5053601;28;20445;-68
2023/05/31 06:44:48;;;;;;;9.40;3.97;;;;;;;15.50;53.48;99146.63;5046797;28;20029;-68
2023/05/31 06:47:14;;;;;;;7.47;3.33;;;;;;;15.57;53.34;99149.78;5055357;28;20036;-69
2023/05/31 06:49:39;;;;;;;9.15;3.80;;;;;;;15.65;52.98;99142.66;5053757;28;20473;-68
2023/05/31 06:52:05;;;;;;;6.85;3.15;;;;;;;15.72;53.21;99148.59;5055503;28;20033;-66
2023/05/31 06:54:35;;;;;;;9.05;3.90;;;;;;;15.80;53.18;99145.06;5052943;28;20043;-66
2023/05/31 06:57:00;;;;;;;7.70;3.55;;;;;;;15.89;53.09;99145.16;5054299;28;20072;-66
2023/05/31 06:59:25;;;;;;;6.65;3.55;;;;;;;15.99;52.76;99147.69;5053713;28;20052;-69
2023/05/31 07:01:52;;;;;;;8.35;3.20;;;;;;;16.09;52.85;99151.31;5052304;28;20553;-68
2023/05/31 07:04:18;;;;;;;11.05;3.38;;;;;;;16.17;52.49;99151.38;5052760;28;20474;-68
2023/05/31 07:06:43;;;;;;;6.28;3.15;;;;;;;16.26;52.52;99147.84;5052531;28;20040;-69
2023/05/31 07:09:08;;;;;;;8.25;3.30;;;;;;;16.34;52.19;99145.09;5055383;28;20064;-69
2023/05/31 07:11:34;;;;;;;6.65;3.00;;;;;;;16.42;52.46;99142.69;5052226;28;20017;-69
2023/05/31 07:14:01;;;;;;;7.10;3.17;;;;;;;16.50;51.71;99148.25;5054261;28;20059;-69
2023/05/31 07:16:27;;;;;;;8.02;3.22;;;;;;;16.58;51.97;99146.66;5052762;28;20120;-71
2023/05/31 07:18:54;;;;;;;7.63;2.60;;;;;;;16.67;52.01;99139.22;5052852;28;20444;-70
2023/05/31 07:21:19;;;;;;;6.65;2.75;;;;;;;16.77;51.34;99140.06;5050859;28;20025;-70
2023/05/31 07:23:45;;;;;;;7.22;2.78;;;;;;;16.87;51.42;99138.94;5053465;28;20025;-70
2023/05/31 07:26:10;;;;;;;6.78;2.70;;;;;;;16.96;51.49;99140.63;5052811;28;20025;-69
2023/05/31 07:28:35;;;;;;;4.03;2.55;;;;;;;17.06;51.21;99138.69;5053945;28;20032;-69
2023/05/31 07:31:01;;;;;;;5.95;2.80;;;;;;;17.16;50.83;99132.84;5053919;28;20499;-71
2023/05/31 07:33:27;;;;;;;5.18;2.42;;;;;;;17.22;50.65;99126.00;5046046;28;20496;-70
2023/05/31 07:35:52;;;;;;;8.10;2.53;;;;;;;17.29;50.31;99131.06;5048569;28;20051;-70
2023/05/31 07:38:18;;;;;;;8.40;2.63;;;;;;;17.38;50.62;99137.44;5051661;28;20060;-70
2023/05/31 07:40:43;;;;;;;6.88;2.33;;;;;;;17.49;50.49;99128.81;5049259;28;20129;-69
2023/05/31 07:43:10;;;;;;;6.50;2.50;;;;;;;17.58;49.99;99126.03;5052485;28;20064;-70
2023/05/31 07:45:36;;;;;;;6.25;2.33;;;;;;;17.63;49.72;99128.63;5051444;28;20087;-70
2023/05/31 07:48:01;;;;;;;4.88;1.90;;;;;;;17.73;49.51;99130.25;5050961;28;20502;-70
2023/05/31 07:50:27;;;;;;;6.00;2.10;;;;;;;17.82;49.38;99126.31;5050725;28;20060;-70
2023/05/31 07:52:52;;;;;;;4.32;2.05;;;;;;;17.91;48.69;99128.25;5052095;28;20033;-68
2023/05/31 07:55:17;;;;;;;7.18;2.10;;;;;;;17.96;48.82;99122.56;5045516;28;20535;-69
2023/05/31 07:57:43;;;;;;;5.00;2.10;;;;;;;18.03;48.66;99125.66;5051884;28;20029;-67
2023/05/31 08:00:13;;;;;;;7.72;2.50;;;;;;;18.13;48.76;99122.56;5053695;28;20033;-66
2023/05/31 08:02:38;;;;;;;7.70;2.40;;;;;;;18.20;48.29;99118.44;5052192;28;20017;-66
2023/05/31 08:05:04;;;;;;;4.53;1.90;;;;;;;18.26;47.99;99117.09;5052973;28;20021;-66
2023/05/31 08:07:30;;;;;;;6.07;1.60;;;;;;;18.31;47.88;99114.16;5052287;28;20027;-67
2023/05/31 08:09:55;;;;;;;5.43;1.70;;;;;;;18.36;47.45;99116.75;5052669;28;20528;-68
2023/05/31 08:12:21;;;;;;;5.20;1.75;;;;;;;18.45;47.62;99119.47;5050214;28;20104;-67
2023/05/31 08:14:46;;;;;;;5.15;1.80;;;;;;;18.54;47.33;99119.47;5047812;28;20025;-68
2023/05/31 08:17:12;;;;;;;4.07;1.90;;;;;;;18.60;47.21;99116.16;5051043;28;20067;-68
2023/05/31 08:19:38;;;;;;;4.97;2.08;;;;;;;18.67;46.80;99118.41;5051140;28;20064;-67
2023/05/31 08:22:04;;;;;;;4.53;1.80;;;;;;;18.71;46.57;99111.03;5051733;28;20049;-67
2023/05/31 08:24:30;;;;;;;6.68;1.80;;;;;;;18.81;46.06;99111.81;5051719;28;20493;-67
2023/05/31 08:26:56;;;;;;;3.88;1.73;;;;;;;18.86;45.72;99108.84;5051242;28;20021;-67
2023/05/31 08:29:22;;;;;;;2.40;1.60;;;;;;;18.92;45.72;99115.84;5049624;28;20085;-68
2023/05/31 08:31:48;;;;;;;5.68;2.15;;;;;;;19.01;46.15;99113.03;5051251;28;20033;-67
2023/05/31 08:34:13;;;;;;;5.78;2.03;;;;;;;19.14;45.86;99122.25;5047708;28;20029;-67
2023/05/31 08:36:40;;;;;;;3.75;1.65;;;;;;;19.18;45.60;99126.78;5050665;28;20410;-67
2023/05/31 08:39:07;;;;;;;5.28;1.88;;;;;;;19.26;45.49;99115.94;5054197;28;20087;-68
2023/05/31 08:41:38;;;;;;;4.78;1.80;;;;;;;19.31;45.13;99118.53;5050120;28;20131;-67
2023/05/31 08:44:05;;;;;;;5.40;1.60;;;;;;;19.39;44.92;99125.19;5050278;28;20037;-67
2023/05/31 08:46:31;;;;;;;2.45;1.40;;;;;;;19.45;44.96;99124.66;5049639;28;20389;-67
2023/05/31 08:49:02;;;;;;;7.70;2.00;;;;;;;19.51;44.20;99125.25;5052195;28;20021;-70
2023/05/31 08:51:28;;;;;;;6.35;1.80;;;;;;;19.54;43.80;99116.22;5047425;28;20461;-69
2023/05/31 08:53:56;;;;;;;3.72;1.80;;;;;;;19.55;42.73;99123.41;5049149;28;20024;-68
2023/05/31 08:56:23;;;;;;;5.90;2.03;;;;;;;19.59;43.53;99115.19;5047886;28;20103;-68
2023/05/31 08:58:50;;;;;;;5.93;2.10;;;;;;;19.64;43.78;99123.34;5045642;28;20025;-68
2023/05/31 09:01:18;;;;;;;5.07;2.03;;;;;;;19.73;43.66;99126.06;5033522;28;20033;-69
2023/05/31 09:03:44;;;;;;;4.28;2.15;;;;;;;19.78;43.20;99126.66;5038601;28;20474;-69
2023/05/31 09:06:10;;;;;;;4.90;1.77;;;;;;;19.84;42.98;99120.88;5050035;28;20037;-69
2023/05/31 09:08:36;;;;;;;7.95;2.42;;;;;;;19.86;43.09;99113.81;5050379;28;20021;-69
2023/05/31 09:11:01;;;;;;;6.18;1.77;;;;;;;19.88;42.92;99116.25;5041508;28;20025;-68
2023/05/31 09:13:27;;;;;;;3.10;2.05;;;;;;;19.92;43.06;99115.25;5041824;28;20032;-68
2023/05/31 09:15:53;;;;;;;4.35;2.33;;;;;;;19.97;42.65;99110.63;5039077;28;20106;-68
2023/05/31 09:18:20;;;;;;;5.68;2.10;;;;;;;19.99;42.02;99108.31;5033560;28;20072;-68
2023/05/31 09:20:52;;;;;;;6.80;2.50;;;;;;;19.99;42.22;99108.31;5030356;28;20021;-68
2023/05/31 09:23:18;;;;;;;3.85;1.80;;;;;;;20.05;42.59;99104.97;5029799;28;20049;-68
2023/05/31 09:25:48;;;;;;;5.72;2.70;;;;;;;20.12;42.29;99095.22;5033281;28;20032;-68
2023/05/31 09:28:14;;;;;;;6.82;2.47;;;;;;;20.16;42.46;99105.34;5040023;28;20067;-68
2023/05/31 09:30:41;;;;;;;6.53;2.53;;;;;;;20.21;42.34;99107.88;5050111;28;20040;-69
2023/05/31 09:33:07;;;;;;;6.38;2.10;;;;;;;20.26;41.96;99104.09;5035939;28;20025;-69
2023/05/31 09:35:33;;;;;;;4.32;2.20;;;;;;;20.29;41.70;99100.59;5037751;28;20036;-69
2023/05/31 09:38:04;;;;;;;8.65;2.40;;;;;;;20.34;41.93;99099.56;5045572;28;20033;-69
2023/05/31 09:40:32;;;;;;;6.57;2.05;;;;;;;20.42;41.66;99095.03;5046830;28;20048;-69
2023/05/31 09:42:58;;;;;;;4.80;2.10;;;;;;;20.50;41.88;99100.50;5038748;28;20059;-68
2023/05/31 09:45:24;;;;;;;4.93;2.40;;;;;;;20.56;41.81;99091.94;5040720;28;20559;-69
2023/05/31 09:47:50;;;;;;;4.88;2.03;;;;;;;20.61;41.50;99100.84;5040463;28;20097;-68
2023/05/31 09:50:17;;;;;;;5.53;1.98;;;;;;;20.63;41.29;99092.97;5040156;28;20033;-67
2023/05/31 09:52:44;;;;;;;4.28;1.90;;;;;;;20.66;41.44;99088.66;5037617;28;20448;-67
2023/05/31 09:55:10;;;;;;;5.22;1.98;;;;;;;20.70;40.47;99092.38;5046059;28;20039;-68
2023/05/31 09:57:40;;;;;;;6.63;2.45;;;;;;;20.71;40.57;99088.44;5053373;28;20025;-66
2023/05/31 10:00:20;;;;;;;5.88;2.13;;;;;;;20.74;40.30;99087.72;5048477;28;20498;-67
2023/05/31 10:02:53;;;;;;;3.80;2.20;;;;;;;20.77;40.29;99081.50;5047801;28;20033;-67
2023/05/31 10:05:20;;;;;;;6.80;2.30;;;;;;;20.84;40.18;99080.88;5049460;28;20108;-67
2023/05/31 10:07:50;;;;;;;7.78;2.63;;;;;;;20.91;40.50;99085.91;5035628;28;20022;-67
2023/05/31 10:10:22;;;;;;;6.05;2.28;;;;;;;20.96;40.38;99080.09;5051223;28;20029;-67
2023/05/31 10:12:53;;;;;;;3.80;2.20;;;;;;;21.02;40.51;99072.28;5055160;28;20025;-67
2023/05/31 10:15:24;;;;;;;5.63;2.45;;;;;;;21.07;40.54;99067.25;5055231;28;20033;-68
2023/05/31 10:18:00;;;;;;;6.35;2.15;;;;;;;21.14;40.64;99074.22;5055137;28;20063;-67
2023/05/31 10:20:32;;;;;;;4.55;2.72;;;;;;;21.20;40.39;99070.03;5055414;28;20029;-68
2023/05/31 10:23:02;;;;;;;6.63;2.50;;;;;;;21.21;40.13;99064.09;5055458;28;20025;-68
2023/05/31 10:25:31;;;;;;;8.07;2.50;;;;;;;21.20;39.86;99059.66;5053894;28;20112;-68
2023/05/31 10:28:01;;;;;;;6.35;2.40;;;;;;;21.22;39.38;99065.72;5051125;28;20550;-68
2023/05/31 10:30:28;;;;;;;;;;;;;;;21.24;39.99;99063.38;5049319;28;20424;-67
2023/05/31 10:33:02;;;;;;;6.43;2.63;;;;;;;21.27;39.59;99057.09;5043311;28;19916;-68
2023/05/31 10:35:28;;;;;;;4.78;2.20;;;;;;;21.30;39.85;99050.00;5055264;28;20025;-68
2023/05/31 10:37:53;;;;;;;6.35;2.67;;;;;;;21.32;39.72;99052.44;5054533;28;20025;-68
2023/05/31 10:40:21;;;;;;;6.57;2.28;;;;;;;21.27;38.58;99051.50;5054373;28;20041;-67
2023/05/31 10:43:06;;;;;;;6.03;2.35;;;;;;;21.26;39.26;99055.47;5055340;28;20048;-68
2023/05/31 10:45:50;;;;;;;6.03;2.38;;;;;;;21.31;39.21;99059.19;5054944;28;20055;-69
2023/05/31 10:48:39;;;;;;;4.85;2.30;;;;;;;21.37;38.98;99052.19;5055070;28;20033;-68
2023/05/31 10:51:06;;;;;;;5.60;2.10;;;;;;;21.41;38.92;99050.31;5055140;28;20434;-68
2023/05/31 10:53:36;;;;;;;6.18;2.30;;;;;;;21.53;39.35;99049.44;5054812;28;20025;-68
2023/05/31 10:56:13;;;;;;;8.43;2.20;;;;;;;21.65;39.24;99043.84;5053079;28;20033;-68
2023/05/31 10:58:51;;;;;;;3.33;1.90;;;;;;;21.78;38.99;99041.00;5046329;28;20108;-69
2023/05/31 11:01:24;;;;;;;3.88;2.10;;;;;;;21.90;39.60;99043.69;5034862;28;20394;-68
2023/05/31 11:03:54;;;;;;;8.05;2.80;;;;;;;22.03;39.24;99033.25;5034579;28;20057;-69
2023/05/31 11:06:23;;;;;;;5.00;2.30;;;;;;;22.12;39.03;99038.69;5034698;28;20021;-69
2023/05/31 11:09:11;;;;;;;5.90;2.20;;;;;;;22.15;38.88;99030.38;5037561;28;20021;-67
2023/05/31 11:11:37;;;;;;;7.88;2.03;;;;;;;22.19;37.54;99035.25;5042668;28;20076;-68
2023/05/31 11:14:08;;;;;;;4.85;2.33;;;;;;;22.20;37.74;99023.72;5037499;28;20029;-68
2023/05/31 11:16:53;;;;;;;4.80;2.40;;;;;;;22.15;38.02;99027.59;5034462;28;20462;-68
2023/05/31 11:19:37;;;;;;;6.38;2.85;;;;;;;22.11;37.84;99014.72;5034334;28;20079;-69
2023/05/31 11:22:07;;;;;;;5.43;2.05;;;;;;;22.14;38.41;99025.16;5034258;28;20389;-67
2023/05/31 11:24:52;;;;;;;8.85;3.30;;;;;;;22.23;38.66;99016.59;5034377;28;20022;-68
2023/05/31 11:27:23;;;;;;;6.45;2.47;;;;;;;22.35;39.06;99021.28;5034087;28;20029;-66
2023/05/31 11:29:55;;;;;;;6.63;2.67;;;;;;;22.41;38.84;99011.44;5050449;28;20036;-66